sensor_id;sensor_type;location;lat;lon;timestamp;pressure;altitude;pressure_sealevel;temperature;humidity
69058;BME280;56128;37.534;-122.308;2023-06-05T00:02:25;100704.13;;;18.71;95.43
69058;BME280;56128;37.534;-122.308;2023-06-05T00:04:52;100694.47;;;18.69;95.62
69058;BME280;56128;37.534;-122.308;2023-06-05T00:07:20;100705.47;;;18.67;96.67
69058;BME280;56128;37.534;-122.308;2023-06-05T00:09:46;100703.78;;;18.66;97.04
69058;BME280;56128;37.534;-122.308;2023-06-05T00:12:12;100694.13;;;18.63;96.95
69058;BME280;56128;37.534;-122.308;2023-06-05T00:14:38;100699.56;;;18.55;97.23
69058;BME280;56128;37.534;-122.308;2023-06-05T00:17:26;100690.09;;;18.43;97.88
69058;BME280;56128;37.534;-122.308;2023-06-05T00:19:53;100692.28;;;18.47;97.92
69058;BME280;56128;37.534;-122.308;2023-06-05T00:22:19;100679.94;;;18.28;98.51
69058;BME280;56128;37.534;-122.308;2023-06-05T00:24:46;100680.63;;;18.14;99.34
69058;BME280;56128;37.534;-122.308;2023-06-05T00:27:13;100686.03;;;18.14;100.00
69058;BME280;56128;37.534;-122.308;2023-06-05T00:29:41;100680.78;;;18.04;100.00
69058;BME280;56128;37.534;-122.308;2023-06-05T00:32:07;100684.13;;;17.90;100.00
69058;BME280;56128;37.534;-122.308;2023-06-05T00:34:33;100684.78;;;17.83;100.00
69058;BME280;56128;37.534;-122.308;2023-06-05T00:36:59;100674.59;;;17.69;100.00
69058;BME280;56128;37.534;-122.308;2023-06-05T00:39:26;100674.28;;;17.80;100.00
69058;BME280;56128;37.534;-122.308;2023-06-05T00:41:52;100672.75;;;17.69;100.00
69058;BME280;56128;37.534;-122.308;2023-06-05T00:44:18;100674.78;;;17.67;100.00
69058;BME280;56128;37.534;-122.308;2023-06-05T00:46:46;100683.91;;;17.66;100.00
69058;BME280;56128;37.534;-122.308;2023-06-05T00:49:14;100681.88;;;17.68;100.00
69058;BME280;56128;37.534;-122.308;2023-06-05T00:51:42;100684.41;;;17.70;100.00
69058;BME280;56128;37.534;-122.308;2023-06-05T00:54:10;100672.56;;;17.63;100.00
69058;BME280;56128;37.534;-122.308;2023-06-05T00:56:37;100680.53;;;17.64;100.00
69058;BME280;56128;37.534;-122.308;2023-06-05T00:59:05;100674.91;;;17.58;100.00
69058;BME280;56128;37.534;-122.308;2023-06-05T01:01:32;100675.25;;;17.55;100.00
69058;BME280;56128;37.534;-122.308;2023-06-05T01:04:00;100664.22;;;17.48;100.00
69058;BME280;56128;37.534;-122.308;2023-06-05T01:06:29;100664.75;;;17.43;100.00
69058;BME280;56128;37.534;-122.308;2023-06-05T01:09:04;100671.34;;;17.41;100.00
69058;BME280;56128;37.534;-122.308;2023-06-05T01:11:43;100667.25;;;17.36;100.00
69058;BME280;56128;37.534;-122.308;2023-06-05T01:14:18;100663.69;;;17.36;100.00
69058;BME280;56128;37.534;-122.308;2023-06-05T01:16:51;100661.47;;;17.31;100.00
69058;BME280;56128;37.534;-122.308;2023-06-05T01:19:24;100665.72;;;17.34;100.00
69058;BME280;56128;37.534;-122.308;2023-06-05T01:21:53;100666.72;;;17.25;100.00
69058;BME280;56128;37.534;-122.308;2023-06-05T01:24:26;100659.41;;;17.17;100.00
69058;BME280;56128;37.534;-122.308;2023-06-05T01:32:03;100664.72;;;16.92;100.00
69058;BME280;56128;37.534;-122.308;2023-06-05T01:34:33;100660.91;;;16.85;100.00
69058;BME280;56128;37.534;-122.308;2023-06-05T01:37:02;100659.03;;;16.77;100.00
69058;BME280;56128;37.534;-122.308;2023-06-05T01:39:29;100675.66;;;16.64;100.00
69058;BME280;56128;37.534;-122.308;2023-06-05T01:41:57;100669.47;;;16.46;100.00
69058;BME280;56128;37.534;-122.308;2023-06-05T01:44:25;100669.03;;;16.32;100.00
69058;BME280;56128;37.534;-122.308;2023-06-05T01:46:54;100667.28;;;16.23;100.00
69058;BME280;56128;37.534;-122.308;2023-06-05T01:49:21;100666.03;;;16.17;100.00
69058;BME280;56128;37.534;-122.308;2023-06-05T01:51:49;100672.91;;;16.12;100.00
69058;BME280;56128;37.534;-122.308;2023-06-05T01:54:15;100673.00;;;16.02;100.00
69058;BME280;56128;37.534;-122.308;2023-06-05T01:56:44;100664.13;;;15.92;100.00
69058;BME280;56128;37.534;-122.308;2023-06-05T01:59:15;100681.38;;;15.81;100.00
69058;BME280;56128;37.534;-122.308;2023-06-05T02:01:42;100680.91;;;15.67;100.00
69058;BME280;56128;37.534;-122.308;2023-06-05T02:04:10;100685.50;;;15.57;100.00
69058;BME280;56128;37.534;-122.308;2023-06-05T02:06:36;100677.63;;;15.46;100.00
69058;BME280;56128;37.534;-122.308;2023-06-05T02:09:09;100686.50;;;15.28;100.00
69058;BME280;56128;37.534;-122.308;2023-06-05T02:11:39;100681.72;;;15.22;100.00
69058;BME280;56128;37.534;-122.308;2023-06-05T02:14:08;100681.63;;;15.14;100.00
69058;BME280;56128;37.534;-122.308;2023-06-05T02:16:38;100677.25;;;15.13;100.00
69058;BME280;56128;37.534;-122.308;2023-06-05T02:19:04;100679.53;;;15.07;100.00
69058;BME280;56128;37.534;-122.308;2023-06-05T02:21:32;100679.41;;;14.99;100.00
69058;BME280;56128;37.534;-122.308;2023-06-05T02:23:59;100679.72;;;14.96;100.00
69058;BME280;56128;37.534;-122.308;2023-06-05T02:26:26;100681.31;;;14.89;100.00
69058;BME280;56128;37.534;-122.308;2023-06-05T02:28:53;100689.97;;;14.83;100.00
69058;BME280;56128;37.534;-122.308;2023-06-05T02:31:23;100689.16;;;14.72;100.00
69058;BME280;56128;37.534;-122.308;2023-06-05T02:33:52;100692.28;;;14.68;100.00
69058;BME280;56128;37.534;-122.308;2023-06-05T02:36:21;100693.56;;;14.54;100.00
69058;BME280;56128;37.534;-122.308;2023-06-05T02:38:48;100700.25;;;14.40;100.00
69058;BME280;56128;37.534;-122.308;2023-06-05T02:41:18;100700.97;;;14.32;100.00
69058;BME280;56128;37.534;-122.308;2023-06-05T02:43:45;100695.44;;;14.24;100.00
69058;BME280;56128;37.534;-122.308;2023-06-05T02:46:13;100682.84;;;14.15;100.00
69058;BME280;56128;37.534;-122.308;2023-06-05T02:48:42;100684.97;;;14.11;100.00
69058;BME280;56128;37.534;-122.308;2023-06-05T02:51:08;100680.31;;;14.03;100.00
69058;BME280;56128;37.534;-122.308;2023-06-05T02:53:37;100683.81;;;13.94;100.00
69058;BME280;56128;37.534;-122.308;2023-06-05T02:56:04;100684.69;;;13.85;100.00
69058;BME280;56128;37.534;-122.308;2023-06-05T02:58:30;100688.75;;;13.79;100.00
69058;BME280;56128;37.534;-122.308;2023-06-05T03:01:02;100688.19;;;13.66;100.00
69058;BME280;56128;37.534;-122.308;2023-06-05T03:03:31;100694.00;;;13.61;100.00
69058;BME280;56128;37.534;-122.308;2023-06-05T03:06:00;100706.28;;;13.54;100.00
69058;BME280;56128;37.534;-122.308;2023-06-05T03:08:36;100704.69;;;13.41;100.00
69058;BME280;56128;37.534;-122.308;2023-06-05T03:11:03;100716.22;;;13.32;100.00
69058;BME280;56128;37.534;-122.308;2023-06-05T03:13:30;100721.75;;;13.30;100.00
69058;BME280;56128;37.534;-122.308;2023-06-05T03:15:58;100728.06;;;13.20;100.00
69058;BME280;56128;37.534;-122.308;2023-06-05T03:18:27;100738.38;;;13.14;100.00
69058;BME280;56128;37.534;-122.308;2023-06-05T03:20:54;100732.94;;;13.05;100.00
69058;BME280;56128;37.534;-122.308;2023-06-05T03:23:27;100735.72;;;12.93;100.00
69058;BME280;56128;37.534;-122.308;2023-06-05T03:25:54;100728.31;;;12.86;100.00
69058;BME280;56128;37.534;-122.308;2023-06-05T03:28:22;100729.97;;;12.77;100.00
69058;BME280;56128;37.534;-122.308;2023-06-05T03:30:50;100737.81;;;12.69;100.00
69058;BME280;56128;37.534;-122.308;2023-06-05T03:33:16;100734.09;;;12.60;100.00
69058;BME280;56128;37.534;-122.308;2023-06-05T03:35:45;100733.19;;;12.49;100.00
69058;BME280;56128;37.534;-122.308;2023-06-05T03:38:12;100734.81;;;12.41;100.00
69058;BME280;56128;37.534;-122.308;2023-06-05T03:40:39;100734.50;;;12.34;100.00
69058;BME280;56128;37.534;-122.308;2023-06-05T03:43:06;100732.47;;;12.26;100.00
69058;BME280;56128;37.534;-122.308;2023-06-05T03:45:37;100730.28;;;12.20;100.00
69058;BME280;56128;37.534;-122.308;2023-06-05T03:48:05;100738.97;;;12.12;100.00
69058;BME280;56128;37.534;-122.308;2023-06-05T03:50:32;100742.78;;;12.10;100.00
69058;BME280;56128;37.534;-122.308;2023-06-05T03:53:02;100750.00;;;11.98;100.00
69058;BME280;56128;37.534;-122.308;2023-06-05T03:55:32;100742.06;;;11.96;100.00
69058;BME280;56128;37.534;-122.308;2023-06-05T03:58:12;100731.97;;;11.89;100.00
69058;BME280;56128;37.534;-122.308;2023-06-05T04:00:42;100743.66;;;11.88;100.00
69058;BME280;56128;37.534;-122.308;2023-06-05T04:03:09;100753.31;;;11.79;100.00
69058;BME280;56128;37.534;-122.308;2023-06-05T04:05:39;100751.97;;;11.73;100.00
69058;BME280;56128;37.534;-122.308;2023-06-05T04:08:07;100745.28;;;11.67;100.00
69058;BME280;56128;37.534;-122.308;2023-06-05T04:10:33;100751.63;;;11.66;100.00
69058;BME280;56128;37.534;-122.308;2023-06-05T04:12:59;100754.78;;;11.60;100.00
69058;BME280;56128;37.534;-122.308;2023-06-05T04:15:27;100749.09;;;11.53;100.00
69058;BME280;56128;37.534;-122.308;2023-06-05T04:17:53;100759.94;;;11.52;100.00
69058;BME280;56128;37.534;-122.308;2023-06-05T04:20:20;100768.22;;;11.49;100.00
69058;BME280;56128;37.534;-122.308;2023-06-05T04:22:46;100757.84;;;11.44;100.00
69058;BME280;56128;37.534;-122.308;2023-06-05T04:25:13;100770.88;;;11.37;100.00
69058;BME280;56128;37.534;-122.308;2023-06-05T04:27:42;100772.81;;;11.35;100.00
69058;BME280;56128;37.534;-122.308;2023-06-05T04:30:09;100774.19;;;11.30;100.00
69058;BME280;56128;37.534;-122.308;2023-06-05T04:32:37;100772.59;;;11.27;100.00
69058;BME280;56128;37.534;-122.308;2023-06-05T04:35:10;100775.63;;;11.23;100.00
69058;BME280;56128;37.534;-122.308;2023-06-05T04:37:37;100778.66;;;11.18;100.00
69058;BME280;56128;37.534;-122.308;2023-06-05T04:40:06;100783.19;;;11.17;100.00
69058;BME280;56128;37.534;-122.308;2023-06-05T04:42:36;100776.47;;;11.12;100.00
69058;BME280;56128;37.534;-122.308;2023-06-05T04:45:04;100785.50;;;11.11;100.00
69058;BME280;56128;37.534;-122.308;2023-06-05T04:47:31;100785.59;;;11.09;100.00
69058;BME280;56128;37.534;-122.308;2023-06-05T04:49:59;100785.09;;;11.04;100.00
69058;BME280;56128;37.534;-122.308;2023-06-05T04:52:26;100789.00;;;11.00;100.00
69058;BME280;56128;37.534;-122.308;2023-06-05T04:54:55;100796.28;;;10.98;100.00
69058;BME280;56128;37.534;-122.308;2023-06-05T04:57:23;100784.38;;;10.91;100.00
69058;BME280;56128;37.534;-122.308;2023-06-05T04:59:51;100794.09;;;10.92;100.00
69058;BME280;56128;37.534;-122.308;2023-06-05T05:02:18;100799.56;;;10.90;100.00
69058;BME280;56128;37.534;-122.308;2023-06-05T05:04:44;100798.13;;;10.86;100.00
69058;BME280;56128;37.534;-122.308;2023-06-05T05:07:10;100800.28;;;10.81;100.00
69058;BME280;56128;37.534;-122.308;2023-06-05T05:09:42;100804.78;;;10.80;100.00
69058;BME280;56128;37.534;-122.308;2023-06-05T05:12:08;100805.03;;;10.77;100.00
69058;BME280;56128;37.534;-122.308;2023-06-05T05:14:35;100806.84;;;10.77;100.00
69058;BME280;56128;37.534;-122.308;2023-06-05T05:17:02;100806.94;;;10.75;100.00
69058;BME280;56128;37.534;-122.308;2023-06-05T05:19:29;100803.78;;;10.70;100.00
69058;BME280;56128;37.534;-122.308;2023-06-05T05:21:55;100799.38;;;10.69;100.00
69058;BME280;56128;37.534;-122.308;2023-06-05T05:24:22;100795.25;;;10.65;100.00
69058;BME280;56128;37.534;-122.308;2023-06-05T05:26:51;100797.09;;;10.64;100.00
69058;BME280;56128;37.534;-122.308;2023-06-05T05:29:17;100805.00;;;10.66;100.00
69058;BME280;56128;37.534;-122.308;2023-06-05T05:31:44;100807.78;;;10.64;100.00
69058;BME280;56128;37.534;-122.308;2023-06-05T05:34:11;100807.16;;;10.61;100.00
69058;BME280;56128;37.534;-122.308;2023-06-05T05:36:37;100809.09;;;10.59;100.00
69058;BME280;56128;37.534;-122.308;2023-06-05T05:39:04;100803.13;;;10.55;100.00
69058;BME280;56128;37.534;-122.308;2023-06-05T05:41:30;100803.03;;;10.57;100.00
69058;BME280;56128;37.534;-122.308;2023-06-05T05:43:56;100803.25;;;10.53;100.00
69058;BME280;56128;37.534;-122.308;2023-06-05T05:46:22;100801.78;;;10.49;100.00
69058;BME280;56128;37.534;-122.308;2023-06-05T05:48:48;100800.19;;;10.47;100.00
69058;BME280;56128;37.534;-122.308;2023-06-05T05:51:15;100797.84;;;10.42;100.00
69058;BME280;56128;37.534;-122.308;2023-06-05T05:53:41;100801.28;;;10.44;100.00
69058;BME280;56128;37.534;-122.308;2023-06-05T05:56:07;100797.09;;;10.40;100.00
69058;BME280;56128;37.534;-122.308;2023-06-05T05:58:34;100796.56;;;10.35;100.00
69058;BME280;56128;37.534;-122.308;2023-06-05T06:01:00;100797.66;;;10.32;100.00
69058;BME280;56128;37.534;-122.308;2023-06-05T06:03:26;100789.75;;;10.31;100.00
69058;BME280;56128;37.534;-122.308;2023-06-05T06:05:53;100787.19;;;10.29;100.00
69058;BME280;56128;37.534;-122.308;2023-06-05T06:08:19;100793.63;;;10.27;100.00
69058;BME280;56128;37.534;-122.308;2023-06-05T06:10:46;100791.28;;;10.22;100.00
69058;BME280;56128;37.534;-122.308;2023-06-05T06:13:12;100806.56;;;10.20;100.00
69058;BME280;56128;37.534;-122.308;2023-06-05T06:15:39;100795.88;;;10.20;100.00
69058;BME280;56128;37.534;-122.308;2023-06-05T06:18:08;100795.16;;;10.18;100.00
69058;BME280;56128;37.534;-122.308;2023-06-05T06:20:34;100789.41;;;10.11;100.00
69058;BME280;56128;37.534;-122.308;2023-06-05T06:23:00;100795.81;;;10.08;100.00
69058;BME280;56128;37.534;-122.308;2023-06-05T06:25:28;100796.56;;;10.11;100.00
69058;BME280;56128;37.534;-122.308;2023-06-05T06:28:00;100789.50;;;10.10;100.00
69058;BME280;56128;37.534;-122.308;2023-06-05T06:30:27;100795.81;;;10.08;100.00
69058;BME280;56128;37.534;-122.308;2023-06-05T06:32:57;100782.56;;;10.07;100.00
69058;BME280;56128;37.534;-122.308;2023-06-05T06:35:26;100791.69;;;10.04;100.00
69058;BME280;56128;37.534;-122.308;2023-06-05T06:37:54;100787.91;;;10.07;100.00
69058;BME280;56128;37.534;-122.308;2023-06-05T06:40:21;100796.06;;;10.05;100.00
69058;BME280;56128;37.534;-122.308;2023-06-05T06:42:47;100791.28;;;9.98;100.00
69058;BME280;56128;37.534;-122.308;2023-06-05T06:45:14;100801.75;;;10.01;100.00
69058;BME280;56128;37.534;-122.308;2023-06-05T06:47:41;100799.19;;;9.99;100.00
69058;BME280;56128;37.534;-122.308;2023-06-05T06:50:08;100799.50;;;9.95;100.00
69058;BME280;56128;37.534;-122.308;2023-06-05T06:52:35;100803.91;;;9.96;100.00
69058;BME280;56128;37.534;-122.308;2023-06-05T06:55:01;100800.47;;;9.94;100.00
69058;BME280;56128;37.534;-122.308;2023-06-05T06:57:27;100808.41;;;9.95;100.00
69058;BME280;56128;37.534;-122.308;2023-06-05T06:59:54;100803.16;;;9.94;100.00
69058;BME280;56128;37.534;-122.308;2023-06-05T07:02:23;100801.56;;;9.91;100.00
69058;BME280;56128;37.534;-122.308;2023-06-05T07:04:49;100811.16;;;9.94;100.00
69058;BME280;56128;37.534;-122.308;2023-06-05T07:07:17;100817.25;;;9.96;100.00
69058;BME280;56128;37.534;-122.308;2023-06-05T07:09:45;100832.34;;;9.97;100.00
69058;BME280;56128;37.534;-122.308;2023-06-05T07:12:13;100827.97;;;9.96;100.00
69058;BME280;56128;37.534;-122.308;2023-06-05T07:14:40;100820.78;;;9.96;100.00
69058;BME280;56128;37.534;-122.308;2023-06-05T07:17:07;100817.50;;;9.93;100.00
69058;BME280;56128;37.534;-122.308;2023-06-05T07:19:34;100818.56;;;9.90;100.00
69058;BME280;56128;37.534;-122.308;2023-06-05T07:22:05;100814.84;;;9.93;100.00
69058;BME280;56128;37.534;-122.308;2023-06-05T07:24:32;100804.13;;;9.93;100.00
69058;BME280;56128;37.534;-122.308;2023-06-05T07:27:02;100802.44;;;9.91;100.00
69058;BME280;56128;37.534;-122.308;2023-06-05T07:29:28;100797.72;;;9.95;100.00
69058;BME280;56128;37.534;-122.308;2023-06-05T07:31:56;100796.63;;;9.98;100.00
69058;BME280;56128;37.534;-122.308;2023-06-05T07:34:24;100797.59;;;9.97;100.00
69058;BME280;56128;37.534;-122.308;2023-06-05T07:36:51;100788.69;;;9.96;100.00
69058;BME280;56128;37.534;-122.308;2023-06-05T07:39:21;100790.41;;;9.97;100.00
69058;BME280;56128;37.534;-122.308;2023-06-05T07:41:48;100789.56;;;9.97;100.00
69058;BME280;56128;37.534;-122.308;2023-06-05T07:44:17;100782.63;;;9.94;100.00
69058;BME280;56128;37.534;-122.308;2023-06-05T07:46:44;100771.31;;;9.90;100.00
69058;BME280;56128;37.534;-122.308;2023-06-05T07:49:10;100771.06;;;9.94;100.00
69058;BME280;56128;37.534;-122.308;2023-06-05T07:51:37;100764.25;;;9.89;100.00
69058;BME280;56128;37.534;-122.308;2023-06-05T07:54:06;100757.63;;;9.95;100.00
69058;BME280;56128;37.534;-122.308;2023-06-05T07:56:32;100758.47;;;9.96;100.00
69058;BME280;56128;37.534;-122.308;2023-06-05T07:59:00;100760.06;;;9.98;100.00
69058;BME280;56128;37.534;-122.308;2023-06-05T08:01:27;100761.88;;;9.98;100.00
69058;BME280;56128;37.534;-122.308;2023-06-05T08:03:53;100765.28;;;10.00;100.00
69058;BME280;56128;37.534;-122.308;2023-06-05T08:06:40;100757.25;;;10.00;100.00
69058;BME280;56128;37.534;-122.308;2023-06-05T08:09:07;100757.03;;;10.03;100.00
69058;BME280;56128;37.534;-122.308;2023-06-05T08:11:38;100745.72;;;9.99;100.00
69058;BME280;56128;37.534;-122.308;2023-06-05T08:14:07;100754.81;;;9.97;100.00
69058;BME280;56128;37.534;-122.308;2023-06-05T08:16:34;100757.63;;;9.95;100.00
69058;BME280;56128;37.534;-122.308;2023-06-05T08:19:01;100767.44;;;9.95;100.00
69058;BME280;56128;37.534;-122.308;2023-06-05T08:21:28;100769.38;;;9.93;100.00
69058;BME280;56128;37.534;-122.308;2023-06-05T08:23:54;100767.69;;;9.91;100.00
69058;BME280;56128;37.534;-122.308;2023-06-05T08:26:21;100755.16;;;9.92;100.00
69058;BME280;56128;37.534;-122.308;2023-06-05T08:28:48;100743.13;;;9.86;100.00
69058;BME280;56128;37.534;-122.308;2023-06-05T08:31:14;100750.06;;;9.89;100.00
69058;BME280;56128;37.534;-122.308;2023-06-05T08:33:42;100741.59;;;9.82;100.00
69058;BME280;56128;37.534;-122.308;2023-06-05T08:36:09;100737.34;;;9.80;100.00
69058;BME280;56128;37.534;-122.308;2023-06-05T08:38:35;100743.25;;;9.72;100.00
69058;BME280;56128;37.534;-122.308;2023-06-05T08:41:03;100743.59;;;9.67;100.00
69058;BME280;56128;37.534;-122.308;2023-06-05T08:43:42;100762.19;;;9.69;100.00
69058;BME280;56128;37.534;-122.308;2023-06-05T08:46:11;100760.13;;;9.72;100.00
69058;BME280;56128;37.534;-122.308;2023-06-05T08:48:46;100762.72;;;9.74;100.00
69058;BME280;56128;37.534;-122.308;2023-06-05T08:51:17;100756.50;;;9.73;100.00
69058;BME280;56128;37.534;-122.308;2023-06-05T08:53:51;100749.00;;;9.79;100.00
69058;BME280;56128;37.534;-122.308;2023-06-05T08:56:20;100748.41;;;9.75;100.00
69058;BME280;56128;37.534;-122.308;2023-06-05T08:58:48;100752.13;;;9.72;100.00
69058;BME280;56128;37.534;-122.308;2023-06-05T09:01:16;100748.47;;;9.73;100.00
69058;BME280;56128;37.534;-122.308;2023-06-05T09:03:42;100751.28;;;9.72;100.00
69058;BME280;56128;37.534;-122.308;2023-06-05T09:06:10;100753.00;;;9.73;100.00
69058;BME280;56128;37.534;-122.308;2023-06-05T09:08:37;100748.09;;;9.67;100.00
69058;BME280;56128;37.534;-122.308;2023-06-05T09:11:25;100752.47;;;9.68;100.00
69058;BME280;56128;37.534;-122.308;2023-06-05T09:14:01;100756.84;;;9.69;100.00
69058;BME280;56128;37.534;-122.308;2023-06-05T09:16:41;100755.34;;;9.65;100.00
69058;BME280;56128;37.534;-122.308;2023-06-05T09:19:11;100755.34;;;9.65;100.00
69058;BME280;56128;37.534;-122.308;2023-06-05T09:21:38;100753.63;;;9.64;100.00
69058;BME280;56128;37.534;-122.308;2023-06-05T09:24:10;100751.94;;;9.63;100.00
69058;BME280;56128;37.534;-122.308;2023-06-05T09:29:28;100752.69;;;9.65;100.00
69058;BME280;56128;37.534;-122.308;2023-06-05T09:32:00;100750.13;;;9.63;100.00
69058;BME280;56128;37.534;-122.308;2023-06-05T09:34:29;100750.00;;;9.65;100.00
69058;BME280;56128;37.534;-122.308;2023-06-05T09:36:57;100758.97;;;9.64;100.00
69058;BME280;56128;37.534;-122.308;2023-06-05T09:39:26;100755.59;;;9.62;100.00
69058;BME280;56128;37.534;-122.308;2023-06-05T09:41:54;100749.91;;;9.66;100.00
69058;BME280;56128;37.534;-122.308;2023-06-05T09:44:21;100750.63;;;9.68;100.00
69058;BME280;56128;37.534;-122.308;2023-06-05T09:46:58;100754.25;;;9.80;100.00
69058;BME280;56128;37.534;-122.308;2023-06-05T09:49:30;100744.91;;;9.86;100.00
69058;BME280;56128;37.534;-122.308;2023-06-05T09:51:58;100755.91;;;9.94;100.00
69058;BME280;56128;37.534;-122.308;2023-06-05T09:54:26;100751.19;;;9.98;100.00
69058;BME280;56128;37.534;-122.308;2023-06-05T09:57:03;100753.41;;;10.04;100.00
69058;BME280;56128;37.534;-122.308;2023-06-05T09:59:34;100758.50;;;10.07;100.00
69058;BME280;56128;37.534;-122.308;2023-06-05T10:02:05;100759.97;;;10.11;100.00
69058;BME280;56128;37.534;-122.308;2023-06-05T10:05:04;100758.81;;;10.15;100.00
69058;BME280;56128;37.534;-122.308;2023-06-05T10:07:33;100756.72;;;10.19;100.00
69058;BME280;56128;37.534;-122.308;2023-06-05T10:10:02;100758.09;;;10.24;100.00
69058;BME280;56128;37.534;-122.308;2023-06-05T10:12:30;100745.81;;;10.22;100.00
69058;BME280;56128;37.534;-122.308;2023-06-05T10:14:57;100748.03;;;10.28;100.00
69058;BME280;56128;37.534;-122.308;2023-06-05T10:17:25;100748.88;;;10.29;100.00
69058;BME280;56128;37.534;-122.308;2023-06-05T10:19:52;100748.66;;;10.32;100.00
69058;BME280;56128;37.534;-122.308;2023-06-05T10:22:18;100739.88;;;10.30;100.00
69058;BME280;56128;37.534;-122.308;2023-06-05T10:24:48;100740.75;;;10.30;100.00
69058;BME280;56128;37.534;-122.308;2023-06-05T10:27:56;100737.97;;;10.32;100.00
69058;BME280;56128;37.534;-122.308;2023-06-05T10:30:40;100739.47;;;10.36;100.00
69058;BME280;56128;37.534;-122.308;2023-06-05T10:33:31;100740.22;;;10.38;100.00
69058;BME280;56128;37.534;-122.308;2023-06-05T10:38:38;100743.59;;;10.40;100.00
69058;BME280;56128;37.534;-122.308;2023-06-05T10:41:05;100750.66;;;10.41;100.00
69058;BME280;56128;37.534;-122.308;2023-06-05T10:43:45;100746.06;;;10.43;100.00
69058;BME280;56128;37.534;-122.308;2023-06-05T10:46:32;100744.09;;;10.45;100.00
69058;BME280;56128;37.534;-122.308;2023-06-05T10:49:15;100750.53;;;10.43;100.00
69058;BME280;56128;37.534;-122.308;2023-06-05T10:51:44;100753.00;;;10.46;100.00
69058;BME280;56128;37.534;-122.308;2023-06-05T10:54:53;100749.44;;;10.45;100.00
69058;BME280;56128;37.534;-122.308;2023-06-05T10:57:04;100752.75;;;10.49;100.00
69058;BME280;56128;37.534;-122.308;2023-06-05T10:59:36;100759.69;;;10.51;100.00
69058;BME280;56128;37.534;-122.308;2023-06-05T11:07:22;100757.53;;;10.57;100.00
69058;BME280;56128;37.534;-122.308;2023-06-05T11:10:15;100750.22;;;10.59;100.00
69058;BME280;56128;37.534;-122.308;2023-06-05T11:15:40;100758.03;;;10.62;100.00
69058;BME280;56128;37.534;-122.308;2023-06-05T11:18:32;100754.50;;;10.61;100.00
69058;BME280;56128;37.534;-122.308;2023-06-05T11:21:00;100744.66;;;10.62;100.00
69058;BME280;56128;37.534;-122.308;2023-06-05T11:23:27;100749.75;;;10.65;100.00
69058;BME280;56128;37.534;-122.308;2023-06-05T11:25:56;100745.16;;;10.67;100.00
69058;BME280;56128;37.534;-122.308;2023-06-05T11:28:41;100744.41;;;10.65;100.00
69058;BME280;56128;37.534;-122.308;2023-06-05T11:31:09;100742.47;;;10.67;100.00
69058;BME280;56128;37.534;-122.308;2023-06-05T11:33:35;100739.31;;;10.62;100.00
69058;BME280;56128;37.534;-122.308;2023-06-05T11:36:05;100742.69;;;10.64;100.00
69058;BME280;56128;37.534;-122.308;2023-06-05T11:38:33;100757.78;;;10.65;100.00
69058;BME280;56128;37.534;-122.308;2023-06-05T11:41:00;100747.34;;;10.62;100.00
69058;BME280;56128;37.534;-122.308;2023-06-05T11:43:26;100744.41;;;10.65;100.00
69058;BME280;56128;37.534;-122.308;2023-06-05T11:45:57;100751.47;;;10.66;100.00
69058;BME280;56128;37.534;-122.308;2023-06-05T11:48:24;100748.03;;;10.64;100.00
69058;BME280;56128;37.534;-122.308;2023-06-05T11:51:04;100758.63;;;10.65;100.00
69058;BME280;56128;37.534;-122.308;2023-06-05T11:53:33;100756.81;;;10.66;100.00
69058;BME280;56128;37.534;-122.308;2023-06-05T11:55:59;100748.91;;;10.64;100.00
69058;BME280;56128;37.534;-122.308;2023-06-05T11:58:30;100760.00;;;10.71;100.00
69058;BME280;56128;37.534;-122.308;2023-06-05T12:01:11;100761.09;;;10.68;100.00
69058;BME280;56128;37.534;-122.308;2023-06-05T12:03:46;100754.75;;;10.69;100.00
69058;BME280;56128;37.534;-122.308;2023-06-05T12:06:13;100759.16;;;10.70;100.00
69058;BME280;56128;37.534;-122.308;2023-06-05T12:08:40;100760.84;;;10.71;100.00
69058;BME280;56128;37.534;-122.308;2023-06-05T12:11:24;100765.22;;;10.72;100.00
69058;BME280;56128;37.534;-122.308;2023-06-05T12:13:53;100755.47;;;10.71;100.00
69058;BME280;56128;37.534;-122.308;2023-06-05T12:16:29;100761.56;;;10.74;100.00
69058;BME280;56128;37.534;-122.308;2023-06-05T12:18:57;100761.56;;;10.74;100.00
69058;BME280;56128;37.534;-122.308;2023-06-05T12:21:24;100759.03;;;10.72;100.00
69058;BME280;56128;37.534;-122.308;2023-06-05T12:23:51;100763.41;;;10.73;100.00
69058;BME280;56128;37.534;-122.308;2023-06-05T12:26:18;100758.91;;;10.74;100.00
69058;BME280;56128;37.534;-122.308;2023-06-05T12:28:45;100766.59;;;10.78;100.00
69058;BME280;56128;37.534;-122.308;2023-06-05T12:31:35;100767.78;;;10.74;100.00
69058;BME280;56128;37.534;-122.308;2023-06-05T12:34:03;100776.31;;;10.79;100.00
69058;BME280;56128;37.534;-122.308;2023-06-05T12:36:39;100774.50;;;10.80;100.00
69058;BME280;56128;37.534;-122.308;2023-06-05T12:39:06;100773.53;;;10.81;100.00
69058;BME280;56128;37.534;-122.308;2023-06-05T12:41:33;100774.63;;;10.78;100.00
69058;BME280;56128;37.534;-122.308;2023-06-05T12:44:01;100779.00;;;10.79;100.00